Date,TemperatureHighF,TemperatureAvgF,TemperatureLowF,DewpointHighF,DewpointAvgF,DewpointLowF,HumidityHigh,HumidityAvg,HumidityLow,PressureMaxIn,PressureMinIn,WindSpeedMaxMPH,WindSpeedAvgMPH,GustSpeedMaxMPH,PrecipitationSumIn
2013-1-1,39.5,30.6,24.8,34.7,29.0,24.1,100,94,77,30.51,30.36,1,0,4,0.00
2013-1-2,44.1,31.6,25.4,34.8,28.2,24.6,100,88,57,30.36,30.20,2,0,6,0.01
2013-1-3,43.1,32.7,23.4,34.1,27.3,22.7,100,83,51,30.21,30.11,2,0,6,0.23
2013-1-4,47.7,41.6,34.9,44.9,40.1,33.9,100,94,85,30.32,30.17,3,0,12,0.07
2013-1-5,43.6,40.4,38.3,39.1,37.3,35.7,97,89,77,30.21,30.11,2,0,6,0.09
2013-1-6,44.5,40.8,37.6,41.0,39.0,36.6,97,93,83,30.19,29.99,5,1,12,0.16
2013-1-7,49.4,45.4,38.7,47.2,43.3,37.9,100,93,85,30.16,29.81,6,2,18,0.20
2013-1-8,52.5,46.1,40.1,49.1,44.2,39.3,100,93,84,30.16,29.74,7,2,22,0.56
2013-1-9,48.7,38.9,33.2,47.9,38.1,32.4,100,97,90,29.95,29.67,5,1,16,1.27
2013-1-10,37.2,33.3,27.8,36.8,33.0,27.8,100,99,95,30.12,29.94,2,0,6,0.16
2013-1-11,30.8,26.5,23.1,30.8,26.4,22.4,100,100,97,30.34,30.12,1,0,3,0.00
2013-1-12,33.8,26.0,21.8,30.5,24.5,21.1,100,94,74,30.46,30.33,2,0,6,0.00
2013-1-13,33.8,26.1,19.0,30.2,24.2,18.0,100,93,73,30.51,30.45,1,0,3,0.00
2013-1-14,34.7,32.0,29.5,32.3,30.0,27.8,96,92,86,30.58,30.49,1,0,4,0.01
2013-1-15,41.5,33.3,27.3,35.0,31.1,26.6,100,92,74,30.71,30.58,1,0,4,0.01
2013-1-16,41.1,30.4,24.0,35.5,29.0,23.3,100,95,79,30.70,30.53,1,0,3,0.00
2013-1-17,35.4,30.3,25.8,35.2,30.2,25.8,100,99,96,30.54,30.31,1,0,3,0.01
2013-1-18,34.8,30.6,28.3,34.8,30.6,28.3,100,100,100,30.36,30.27,1,0,4,0.00
2013-1-19,32.0,29.7,27.4,32.0,29.7,27.4,100,100,100,30.40,30.35,1,0,3,0.00
2013-1-20,34.4,30.0,27.9,34.4,30.0,27.9,100,100,97,30.41,30.28,2,0,4,0.00
2013-1-21,33.2,30.1,27.3,33.2,30.1,27.3,100,100,100,30.29,30.15,1,0,4,0.00
2013-1-22,36.5,31.3,26.6,36.5,31.3,26.6,100,100,100,30.16,29.91,1,0,2,0.01
2013-1-23,41.0,38.3,34.3,40.9,36.5,29.4,100,93,66,30.14,29.85,6,0,9,0.30
2013-1-24,44.8,40.8,36.9,40.9,38.8,36.1,100,93,76,30.22,30.06,2,0,7,0.19
2013-1-25,49.1,42.9,36.9,46.1,42.2,36.9,100,97,84,30.06,29.93,3,0,7,0.16
2013-1-26,43.0,40.2,37.3,41.4,39.1,37.3,100,96,91,30.04,29.89,3,0,9,0.37
2013-1-27,41.2,39.5,38.1,39.3,38.0,37.1,97,94,90,30.06,29.99,3,1,12,0.12
2013-1-28,41.1,39.5,36.8,41.1,39.0,36.1,100,98,94,30.10,30.01,3,0,8,0.48
2013-1-29,45.5,43.3,40.3,45.5,43.1,40.3,100,99,97,30.34,30.10,3,1,9,0.72
2013-1-30,47.7,45.8,43.1,47.6,45.7,43.1,100,100,97,30.39,30.33,3,1,9,0.18
2013-1-31,48.7,46.2,45.0,46.0,45.2,44.3,100,97,88,30.40,30.31,3,1,12,0.16
2013-2-1,50.1,44.0,38.0,46.2,43.0,37.6,100,96,82,30.41,30.33,2,0,4,0.01
2013-2-2,40.9,38.6,36.4,40.9,38.3,36.4,100,99,94,30.39,30.26,2,0,5,0.00
2013-2-3,47.5,42.2,36.9,44.1,41.1,36.9,100,96,86,30.32,30.21,2,0,6,0.09
2013-2-4,49.9,45.2,42.6,43.5,42.2,41.0,97,89,76,30.21,29.90,2,0,10,0.00
2013-2-5,50.0,45.2,42.5,43.5,42.0,40.4,100,89,75,29.94,29.85,6,2,23,0.18
2013-2-6,49.8,44.3,42.0,41.8,40.2,39.0,96,86,67,30.05,29.79,6,1,14,0.06
2013-2-7,48.4,41.5,31.3,41.4,36.1,30.5,97,82,59,30.19,29.80,7,1,16,0.09
2013-2-8,44.1,36.2,29.2,38.2,34.0,29.1,100,92,75,30.32,30.19,2,0,5,0.00
2013-2-9,43.5,40.1,37.5,40.1,38.5,36.0,100,94,84,30.34,30.27,2,0,4,0.02
2013-2-10,45.4,38.4,32.5,40.2,36.5,32.5,100,93,73,30.39,30.32,1,0,5,0.01
2013-2-11,46.2,41.4,37.1,40.7,38.8,36.1,100,91,75,30.37,30.33,2,0,6,0.03
2013-2-12,49.1,45.3,41.1,45.6,43.4,39.5,100,93,86,30.41,30.29,5,1,14,0.03
2013-2-13,47.6,43.8,42.1,44.9,42.4,41.3,100,95,87,30.50,30.31,5,0,9,0.14
2013-2-14,47.4,44.2,41.1,44.6,42.5,39.9,100,94,85,30.56,30.50,2,0,7,0.08
2013-2-15,57.1,43.8,36.8,46.6,41.2,36.1,100,92,67,30.55,30.18,2,0,6,0.00
2013-2-16,52.5,42.6,34.9,44.5,40.5,34.9,100,93,66,30.21,30.11,5,1,14,0.47
2013-2-17,45.4,39.7,36.5,39.7,37.7,36.4,100,93,73,30.25,30.12,2,0,7,0.01
2013-2-18,44.8,39.3,35.0,38.6,36.3,34.0,97,89,71,30.12,29.77,3,0,12,0.00
2013-2-19,49.8,40.4,33.1,38.3,35.1,31.6,96,82,57,30.02,29.74,5,0,10,0.00
2013-2-20,43.9,38.0,31.5,39.5,35.9,30.7,100,92,78,30.06,30.00,5,0,10,0.08
2013-2-21,43.0,40.8,37.1,39.9,38.5,36.4,100,91,83,30.08,30.01,5,1,14,0.02
2013-2-22,45.8,41.6,38.3,42.0,38.4,33.8,95,88,78,30.06,29.69,8,3,20,0.15
2013-2-23,48.3,41.3,36.9,38.0,36.2,34.1,93,82,63,30.38,29.91,3,1,12,0.00
2013-2-24,46.7,43.1,39.4,38.2,36.2,34.4,86,77,66,30.39,29.96,6,2,14,0.00
2013-2-25,49.0,42.4,35.0,39.3,36.3,32.3,94,80,54,30.31,29.90,8,2,20,0.08
2013-2-26,46.8,40.6,30.9,37.7,33.4,29.9,100,77,57,30.36,30.21,6,1,12,0.01
2013-2-27,48.0,42.6,37.9,43.6,40.2,36.8,100,92,72,30.31,30.21,2,0,8,0.42
2013-2-28,51.3,45.2,40.8,49.9,44.9,40.8,100,99,94,30.33,30.19,5,1,11,0.21
2013-3-1,56.7,53.1,50.3,50.7,49.7,49.0,100,88,79,30.37,30.28,6,2,20,0.08
2013-3-2,56.6,48.5,36.8,49.4,44.4,36.0,97,86,71,30.28,30.07,7,1,18,0.34
2013-3-3,48.7,38.6,30.9,38.7,34.4,29.6,100,86,54,30.32,30.20,3,0,8,0.00
2013-3-4,54.0,39.3,27.0,35.8,28.9,25.1,100,71,36,30.31,29.94,3,0,7,0.00
2013-3-5,50.8,45.3,41.0,39.4,32.8,24.2,90,63,43,29.94,29.73,3,0,9,0.00
2013-3-6,42.8,40.5,37.7,41.6,38.8,36.1,97,94,87,29.91,29.59,3,0,9,0.49
2013-3-7,51.1,42.2,33.9,44.5,40.1,33.1,100,93,69,30.10,29.91,2,0,8,0.24
2013-3-8,52.6,39.3,29.6,42.0,36.1,29.6,100,89,64,30.26,30.09,2,0,9,0.00
2013-3-9,54.1,39.7,29.4,42.3,35.2,29.4,100,86,54,30.50,30.26,3,0,8,0.00
2013-3-10,47.4,40.6,33.7,41.7,38.0,32.6,97,91,73,30.51,30.44,2,0,5,0.01
2013-3-11,51.3,47.2,41.7,45.3,43.2,40.6,97,86,70,30.46,30.17,2,0,7,0.03
2013-3-12,54.5,51.5,47.0,50.1,47.8,45.2,94,87,75,30.17,30.07,6,2,18,0.00
2013-3-13,51.5,50.4,49.2,50.4,48.6,47.1,100,93,88,30.21,30.10,6,2,17,0.25
2013-3-14,52.3,49.2,46.6,49.8,47.0,44.3,100,92,78,30.16,30.04,5,1,9,0.02
2013-3-15,58.8,51.7,47.3,50.1,47.8,44.9,97,87,69,30.22,30.14,6,1,12,0.00
2013-3-16,49.6,45.6,37.1,45.2,41.4,34.3,91,85,72,30.14,29.89,7,2,18,0.00
2013-3-17,48.7,40.4,36.2,38.5,35.1,33.1,97,82,57,30.21,29.98,6,1,16,0.16
2013-3-18,51.0,42.2,33.9,41.8,36.2,31.9,96,80,55,30.26,30.12,5,1,17,0.09
2013-3-19,56.8,41.3,32.0,40.7,34.8,28.3,97,81,34,30.24,29.61,6,1,13,0.28
2013-3-20,50.5,44.7,34.9,48.3,41.0,33.1,100,88,72,30.02,29.40,9,3,24,0.73
2013-3-21,45.9,38.5,33.5,39.2,34.8,32.7,97,87,65,30.23,30.02,5,1,13,0.17
2013-3-22,45.8,37.0,31.2,37.3,32.1,28.1,100,84,55,30.40,30.22,3,0,9,0.05
2013-3-23,50.1,38.0,29.6,33.8,28.4,22.1,96,72,33,30.42,30.32,3,0,7,0.00
2013-3-24,54.3,40.4,27.8,35.2,29.8,26.0,96,70,36,30.31,30.14,2,0,6,0.00
2013-3-25,62.1,47.1,30.9,35.9,30.2,26.5,86,55,31,30.14,29.94,2,0,6,0.00
2013-3-26,60.5,49.0,41.9,41.8,38.0,34.5,82,67,40,30.03,29.96,3,0,8,0.00
2013-3-27,57.7,47.9,42.0,47.6,42.0,38.5,97,81,56,30.00,29.94,2,0,5,0.00
2013-3-28,62.0,49.8,40.9,50.4,44.7,40.1,100,84,57,30.16,30.00,3,0,8,0.04
2013-3-29,64.1,51.8,40.5,48.4,44.2,39.4,97,77,51,30.25,30.16,5,0,9,0.00
2013-3-30,68.3,51.9,37.3,46.5,42.5,36.5,100,74,41,30.26,30.08,2,0,9,0.00
2013-3-31,73.0,53.8,38.9,47.7,43.4,38.1,100,72,39,30.08,29.91,2,0,6,0.00
2013-4-1,60.7,52.1,45.6,49.7,46.6,43.3,94,82,62,30.16,29.98,6,1,12,0.00
2013-4-2,55.2,51.2,47.7,48.2,46.2,44.6,92,83,74,30.20,30.15,5,1,12,0.00
2013-4-3,61.4,52.3,43.3,48.4,44.8,41.6,97,78,50,30.19,29.95,5,0,8,0.00
2013-4-4,54.9,51.5,47.6,53.7,49.2,44.8,97,92,84,29.95,29.65,6,1,14,0.42
2013-4-5,56.8,51.6,47.1,50.6,48.5,45.6,97,90,76,29.88,29.73,6,2,17,0.25
2013-4-6,53.5,46.9,43.4,47.0,44.0,41.5,97,90,73,29.94,29.71,7,2,16,0.43
2013-4-7,44.7,42.1,38.3,43.4,41.0,37.3,97,96,93,29.90,29.51,2,0,9,0.92
2013-4-8,54.3,46.0,41.3,47.6,43.2,40.5,100,90,72,30.28,29.90,3,0,7,0.05
2013-4-9,53.9,47.9,40.5,44.8,42.0,39.4,100,81,63,30.36,30.19,3,1,9,0.00
2013-4-10,57.6,50.7,46.2,51.2,46.2,42.2,96,85,70,30.27,29.95,6,1,16,0.17
2013-4-11,52.6,46.6,40.9,44.0,40.6,37.1,95,80,61,30.32,30.20,3,0,8,0.16
2013-4-12,46.1,42.0,37.6,42.8,39.0,35.2,96,89,73,30.20,29.68,7,1,18,0.19
2013-4-13,47.7,40.9,34.5,42.8,38.5,33.5,97,91,78,30.01,29.77,6,1,14,0.55
2013-4-14,53.8,44.1,37.3,42.7,38.1,33.5,100,82,49,30.02,29.92,3,0,8,0.13
2013-4-15,56.4,44.1,36.4,42.0,38.7,35.4,97,83,53,30.19,29.96,5,0,12,0.01
2013-4-16,54.3,43.6,34.8,43.2,37.6,34.0,100,82,49,30.41,30.19,3,0,7,0.05
2013-4-17,58.8,47.0,34.3,42.3,37.4,31.0,97,72,35,30.47,30.40,6,1,12,0.00
2013-4-18,50.2,46.5,42.7,47.1,42.5,38.0,95,86,75,30.46,30.22,6,1,13,0.15
2013-4-19,53.4,49.9,46.8,51.8,48.6,46.0,97,95,92,30.22,30.07,5,1,20,0.48
2013-4-20,54.1,48.2,45.4,49.5,45.7,43.6,97,91,76,30.29,30.21,3,1,10,0.39
2013-4-21,52.5,45.6,38.4,45.9,42.5,37.1,97,89,68,30.38,30.24,3,0,8,0.13
2013-4-22,61.2,46.5,32.3,43.2,34.6,23.3,100,69,30,30.53,30.38,5,0,8,0.00
2013-4-23,63.7,48.0,32.7,40.3,34.7,27.0,97,65,25,30.44,30.25,3,0,8,0.00
2013-4-24,70.1,53.3,36.1,43.4,37.2,29.5,97,61,24,30.34,30.07,3,0,9,0.00
2013-4-25,70.6,56.3,39.7,45.3,39.8,36.0,89,58,29,30.14,30.04,3,0,8,0.00
2013-4-26,64.4,54.3,42.7,50.4,46.3,41.4,100,76,56,30.26,30.14,5,1,12,0.00
2013-4-27,55.1,52.6,49.4,48.9,44.8,38.6,92,75,56,30.23,30.15,5,1,13,0.03
2013-4-28,57.2,50.2,45.0,50.7,44.6,40.1,97,82,59,30.22,29.95,5,1,16,0.18
2013-4-29,55.4,47.0,41.2,46.2,39.8,32.1,96,78,42,30.17,29.92,3,1,12,0.15
2013-4-30,54.9,43.9,34.7,41.0,35.1,28.2,97,74,37,30.45,30.17,6,0,12,0.15
2013-5-1,64.5,48.8,31.5,39.3,34.0,26.3,97,63,24,30.59,30.45,2,0,8,0.00
2013-5-2,70.6,53.9,38.3,45.6,40.1,36.3,93,63,35,30.56,30.37,3,0,9,0.00
2013-5-3,69.6,56.0,40.4,49.0,44.2,38.5,94,67,43,30.40,30.24,3,1,9,0.00
2013-5-4,77.2,60.7,44.2,51.7,45.5,37.4,95,62,25,30.25,30.00,5,0,9,0.00
2013-5-5,82.6,64.9,45.6,50.6,46.3,40.9,92,56,24,30.00,29.77,5,0,12,0.00
2013-5-6,86.0,68.1,47.9,51.2,46.7,42.2,89,51,23,29.86,29.74,5,0,9,0.00
2013-5-7,71.5,59.4,51.4,54.6,51.0,47.6,91,75,53,30.00,29.82,5,1,12,0.00
2013-5-8,67.2,55.9,50.7,53.4,50.2,47.8,95,82,61,30.15,30.00,6,1,12,0.00
2013-5-9,73.4,57.3,47.2,56.0,51.1,46.4,100,82,46,30.23,30.12,6,0,9,0.00
2013-5-10,78.1,62.4,45.4,56.3,51.5,44.6,100,71,39,30.21,30.10,3,0,8,0.00
2013-5-11,79.6,66.0,55.2,55.5,50.5,43.2,87,59,39,30.17,29.99,3,1,9,0.00
2013-5-12,69.6,62.3,57.3,57.8,55.9,52.5,95,81,59,30.10,30.01,5,1,12,0.11
2013-5-13,64.8,56.2,48.7,56.7,50.5,41.8,94,82,61,30.19,29.93,7,2,21,0.11
2013-5-14,63.5,54.0,45.3,44.9,42.1,36.7,88,66,39,30.24,30.12,5,1,10,0.00
2013-5-15,64.6,52.1,42.6,50.8,45.2,40.0,96,79,44,30.13,30.03,5,1,12,0.06
2013-5-16,70.7,59.4,51.1,54.3,51.1,48.8,97,76,50,30.03,29.87,3,1,10,0.01
2013-5-17,63.2,56.1,52.1,52.4,49.6,46.8,92,79,58,30.06,29.95,5,1,12,0.02
2013-5-18,62.6,55.6,51.1,49.4,47.0,44.6,87,73,56,30.28,30.07,5,1,12,0.00
2013-5-19,66.2,55.9,48.3,52.0,48.8,45.6,91,78,56,30.41,30.28,2,0,7,0.00
2013-5-20,68.1,54.6,42.4,52.0,47.1,41.4,97,78,47,30.36,29.92,6,1,9,0.00
2013-5-21,56.2,49.7,45.3,49.1,45.4,43.1,96,86,65,29.92,29.79,5,1,10,0.33
2013-5-22,52.6,46.9,42.7,47.7,44.2,41.3,96,91,77,29.96,29.86,6,1,10,0.08
2013-5-23,56.3,48.4,42.6,47.0,44.3,41.5,100,86,61,30.03,29.95,5,1,12,0.05
2013-5-24,62.2,52.4,44.0,48.9,45.6,43.1,100,79,52,30.06,29.99,5,1,9,0.00
2013-5-25,63.4,54.9,49.2,48.8,46.4,42.7,90,74,48,30.06,29.98,6,1,12,0.00
2013-5-26,63.6,55.6,49.3,54.2,50.3,47.1,95,83,65,30.00,29.95,6,1,12,0.02
2013-5-27,59.3,54.6,49.3,55.7,52.0,47.9,96,91,82,29.98,29.72,2,0,7,0.17
2013-5-28,62.0,55.7,50.7,51.7,49.7,47.2,94,81,63,29.90,29.78,6,1,14,0.01
2013-5-29,59.5,52.3,48.9,53.1,49.2,47.2,96,90,68,29.98,29.69,5,0,13,0.15
2013-5-30,61.7,54.4,47.8,48.5,46.5,44.3,88,76,56,30.25,29.98,6,2,14,0.00
2013-5-31,67.7,56.5,47.4,49.2,46.0,42.1,93,71,42,30.35,30.25,3,1,9,0.00
2013-6-1,71.1,59.5,47.6,51.7,47.4,39.0,89,67,32,30.25,30.05,5,1,8,0.00
2013-6-2,69.9,59.7,51.5,52.6,50.2,47.0,95,73,48,30.09,30.05,5,1,12,0.05
2013-6-3,73.6,59.3,48.4,54.0,50.9,46.8,96,76,45,30.13,30.06,5,1,10,0.00
2013-6-4,81.2,64.8,47.6,56.9,51.9,46.4,97,67,36,30.14,30.02,3,0,9,0.00
2013-6-5,77.6,64.8,50.3,58.9,52.7,45.6,86,66,43,30.09,30.02,3,0,10,0.00
2013-6-6,78.8,64.4,49.9,57.0,50.3,42.7,96,64,31,30.06,30.00,5,1,10,0.00
2013-6-7,67.5,60.1,54.2,56.0,48.5,42.8,79,66,46,30.16,30.02,5,1,13,0.00
2013-6-8,67.9,58.7,51.8,52.5,48.8,46.3,83,70,55,30.21,30.11,5,1,10,0.00
2013-6-9,65.9,57.0,49.3,49.6,47.3,44.6,90,71,51,30.13,30.03,3,1,10,0.00
2013-6-10,68.7,57.9,45.3,49.6,46.5,42.5,92,68,42,30.05,29.89,6,1,10,0.00
2013-6-11,64.3,56.7,51.0,53.0,46.8,44.4,88,70,51,30.11,29.95,6,1,17,0.05
2013-6-12,66.6,57.8,51.6,50.8,46.7,43.1,93,68,43,30.15,30.11,5,1,12,0.06
2013-6-13,69.0,58.2,51.1,51.9,49.2,44.0,95,74,42,30.22,30.15,3,0,9,0.00
2013-6-14,68.3,58.2,51.4,49.8,48.3,46.6,87,70,51,30.24,30.06,5,1,12,0.00
2013-6-15,76.7,62.4,45.6,56.0,51.5,44.5,97,70,47,30.06,29.92,3,0,7,0.00
2013-6-16,73.5,63.1,54.1,61.5,53.8,50.4,92,73,53,30.09,29.99,5,1,10,0.01
2013-6-17,77.3,63.7,54.0,54.5,51.7,47.8,93,68,37,30.10,29.89,7,1,16,0.04
2013-6-18,72.2,62.1,52.0,54.2,49.8,43.1,97,68,37,29.99,29.88,6,1,13,0.00
2013-6-19,64.3,58.6,54.6,55.6,51.8,49.0,89,78,62,30.01,29.92,3,1,9,0.03
2013-6-20,58.9,54.9,51.5,55.2,51.6,48.7,97,89,74,30.12,29.96,3,1,10,1.12
2013-6-21,67.2,58.2,51.4,55.4,52.6,49.9,100,83,60,30.18,30.12,2,0,7,0.00
2013-6-22,78.8,63.9,48.8,56.0,52.0,48.0,100,69,39,30.13,29.85,3,1,12,0.00
2013-6-23,70.0,63.9,57.9,62.8,58.8,54.6,95,84,71,29.85,29.60,2,0,6,0.09
2013-6-24,68.1,61.2,55.5,59.6,55.7,53.3,100,83,61,29.70,29.58,6,1,12,0.12
2013-6-25,74.2,61.2,55.1,59.0,55.5,50.9,97,84,47,29.86,29.68,9,1,21,0.68
2013-6-26,72.1,62.4,54.5,61.1,57.3,53.7,100,85,60,30.08,29.85,5,1,12,0.06
2013-6-27,70.3,63.7,58.5,63.7,60.1,55.9,97,88,74,30.20,30.05,2,0,8,0.08
2013-6-28,87.0,72.3,58.7,66.8,62.3,57.9,100,74,42,30.19,30.03,6,1,13,0.00
2013-6-29,86.4,72.8,63.5,64.9,61.2,57.2,90,69,46,30.10,29.98,3,0,8,0.00
2013-6-30,93.9,77.1,58.0,68.1,62.7,56.1,95,64,39,30.01,29.83,3,0,8,0.00
2013-7-1,89.8,75.5,61.9,67.5,61.5,58.0,87,64,43,30.01,29.90,5,0,9,0.00
2013-7-2,82.0,69.9,59.2,62.9,56.4,50.8,89,64,37,30.10,30.01,5,1,9,0.00
2013-7-3,79.2,66.9,58.0,57.6,51.1,44.6,73,58,34,30.15,30.03,2,1,9,0.00
2013-7-4,73.1,61.7,55.2,55.2,52.6,49.1,84,73,51,30.13,30.03,5,1,12,0.00
2013-7-5,75.3,63.6,53.7,56.8,54.1,50.8,92,73,51,30.04,29.95,5,1,10,0.00
2013-7-6,79.7,64.7,53.4,59.3,55.0,52.0,96,73,46,29.98,29.85,3,0,9,0.00
2013-7-7,77.1,64.9,54.4,60.1,56.6,51.8,93,76,53,29.95,29.88,5,1,12,0.00
2013-7-8,80.6,63.9,56.3,59.4,55.5,52.7,88,76,44,30.09,29.94,5,1,10,0.00
2013-7-9,85.0,69.8,55.8,60.3,56.5,51.8,96,66,39,30.11,29.99,6,1,12,0.00
2013-7-10,71.8,62.1,54.6,57.8,53.7,49.5,89,75,60,30.06,29.95,6,1,12,0.00
2013-7-11,69.9,59.4,53.5,52.7,49.0,46.7,86,70,50,30.09,30.00,5,1,8,0.00
2013-7-12,66.9,57.6,48.9,53.6,49.6,45.5,89,75,59,30.11,30.02,3,0,9,0.00
2013-7-13,76.7,62.4,45.9,53.9,49.2,44.1,95,65,36,30.21,30.11,3,0,8,0.00
2013-7-14,81.2,65.2,48.0,54.6,48.8,44.9,96,60,30,30.14,29.98,5,1,12,0.00
2013-7-15,81.3,66.7,49.9,57.7,50.7,47.2,92,60,34,30.05,29.89,3,1,8,0.00
2013-7-16,89.0,71.8,53.8,57.9,53.2,49.2,86,55,27,29.91,29.79,3,0,7,0.00
2013-7-17,71.0,65.2,57.6,59.6,56.4,54.3,90,74,58,30.19,29.87,5,1,14,0.01
2013-7-18,79.0,65.8,56.2,59.6,56.3,53.8,93,73,51,30.23,30.11,3,0,8,0.00
2013-7-19,81.4,64.9,51.9,61.7,56.6,50.7,97,77,49,30.19,30.03,3,0,10,0.00
2013-7-20,76.5,62.4,52.0,60.8,56.2,50.5,96,82,57,30.09,29.95,3,0,8,0.00
2013-7-21,77.4,63.7,55.3,60.3,57.2,53.9,96,81,55,29.98,29.90,3,1,9,0.00
2013-7-22,79.4,65.4,56.7,60.5,57.4,54.7,94,77,49,30.07,29.93,3,1,8,0.00
2013-7-23,86.3,68.9,54.1,61.7,56.0,53.0,97,68,36,30.06,29.96,5,0,9,0.00
2013-7-24,85.2,69.6,53.8,59.1,54.0,48.5,94,62,33,30.05,29.98,6,1,10,0.00
2013-7-25,85.5,68.8,51.1,56.1,51.3,42.8,90,58,23,30.09,30.03,5,0,9,0.00
2013-7-26,83.6,67.5,52.6,55.9,50.8,39.3,91,59,22,30.15,30.07,3,1,10,0.00
2013-7-27,78.1,63.9,50.8,54.5,51.3,47.3,91,66,40,30.16,29.99,5,1,12,0.00
2013-7-28,69.0,60.3,54.6,55.7,53.0,50.3,90,77,61,30.03,29.95,6,2,13,0.00
2013-7-29,75.3,63.6,55.7,56.8,54.2,51.6,86,73,51,30.01,29.95,3,1,8,0.00
2013-7-30,76.8,64.9,56.3,58.7,55.9,52.7,93,74,51,30.13,30.00,5,1,10,0.00
2013-7-31,68.6,61.7,56.1,61.8,57.7,53.8,96,87,71,30.13,29.99,3,0,7,0.00
2013-8-1,65.8,61.2,56.2,58.9,55.5,53.6,92,82,71,30.07,30.03,6,1,12,0.00
2013-8-2,60.4,59.0,57.0,58.6,56.5,54.0,97,91,82,30.13,30.06,2,0,8,0.08
2013-8-3,72.9,63.7,58.2,61.7,58.7,55.8,100,85,65,30.13,30.05,2,0,5,0.00
2013-8-4,81.4,68.0,53.4,63.1,58.4,52.3,100,74,51,30.06,29.93,3,0,7,0.00
2013-8-5,84.9,70.3,55.9,61.4,57.2,51.7,96,67,33,30.01,29.91,3,0,9,0.00
2013-8-6,86.4,69.3,52.2,60.3,54.8,49.8,93,64,29,30.00,29.90,5,1,9,0.00
2013-8-7,85.2,69.2,53.8,59.7,55.4,51.6,94,65,35,30.01,29.93,3,1,8,0.00
2013-8-8,80.7,66.7,58.7,60.8,57.3,53.2,91,73,48,30.03,29.93,5,1,9,0.00
2013-8-9,80.7,68.7,54.7,60.3,56.2,51.5,91,67,46,29.96,29.83,5,1,9,0.00
2013-8-10,75.4,66.8,59.6,64.2,60.9,57.8,96,82,62,30.00,29.88,6,1,12,0.08
2013-8-11,74.2,65.5,57.9,60.0,56.1,54.0,89,73,51,30.06,29.98,5,1,12,0.01
2013-8-12,76.8,65.6,55.6,57.8,55.7,53.0,92,72,49,30.07,30.00,5,1,10,0.00
2013-8-13,80.8,67.0,55.0,57.9,55.1,50.6,94,69,36,30.10,29.92,5,1,9,0.00
2013-8-14,80.4,66.3,55.3,62.1,57.8,53.5,95,77,44,29.96,29.91,3,0,9,0.02
2013-8-15,68.7,65.6,62.2,66.0,63.3,61.0,97,92,83,29.99,29.91,2,0,6,0.05
2013-8-16,82.7,70.4,60.1,66.0,60.5,50.9,100,75,34,30.00,29.93,5,1,13,0.00
2013-8-17,76.4,68.7,60.3,61.5,58.1,54.9,85,70,58,30.07,30.00,5,1,13,0.00
2013-8-18,77.0,66.4,59.6,59.8,56.4,52.2,88,71,55,30.13,30.07,5,1,12,0.00
2013-8-19,77.8,66.2,57.0,59.1,55.1,50.9,84,68,52,30.12,30.05,5,1,9,0.00
2013-8-20,76.3,65.5,55.6,57.8,52.8,49.7,85,65,47,30.17,30.07,3,1,8,0.00
2013-8-21,81.4,65.9,49.4,55.9,52.4,47.6,95,65,39,30.09,29.93,2,0,7,0.00
2013-8-22,83.6,69.9,54.1,59.8,55.5,51.2,91,63,38,29.95,29.79,6,0,9,0.00
2013-8-23,73.9,66.3,61.1,58.3,56.7,55.3,86,72,57,29.89,29.81,7,1,13,0.00
2013-8-24,75.0,65.2,57.5,58.3,55.4,47.4,93,72,42,29.92,29.84,5,1,9,0.00
2013-8-25,73.1,62.0,50.9,60.6,55.0,49.6,97,79,56,29.95,29.86,3,0,7,0.00
2013-8-26,73.8,64.2,58.4,60.7,57.9,52.1,94,81,48,29.96,29.85,5,1,12,0.05
2013-8-27,78.9,67.5,59.6,61.8,59.0,56.3,94,76,52,29.96,29.78,3,0,8,0.00
2013-8-28,78.5,68.1,59.5,65.8,60.9,57.2,100,80,54,29.88,29.82,5,0,7,0.15
2013-8-29,72.5,66.0,62.8,66.0,63.6,62.0,97,92,78,30.01,29.85,3,0,9,0.49
2013-8-30,76.6,67.4,57.9,62.9,57.3,51.9,94,72,43,30.15,30.02,5,1,9,0.00
2013-8-31,81.5,66.1,51.9,60.4,56.3,51.0,100,74,46,30.08,29.83,2,0,6,0.00
2013-9-1,79.9,73.8,63.3,60.6,59.0,56.5,79,61,46,29.87,29.79,5,1,9,0.00
2013-9-2,80.2,68.4,57.6,60.9,57.8,55.3,95,71,47,29.93,29.85,5,1,10,0.00
2013-9-3,72.6,64.2,58.5,64.9,60.8,56.8,97,89,68,30.02,29.93,1,0,4,0.19
2013-9-4,68.0,61.7,57.0,62.0,59.2,56.1,100,92,79,30.06,29.99,2,0,5,0.00
2013-9-5,67.9,61.6,57.0,62.4,59.3,56.2,100,92,79,30.05,29.93,2,0,7,0.61
2013-9-6,71.2,63.0,59.4,63.4,60.5,58.7,100,92,74,30.12,29.94,5,0,10,0.98
2013-9-7,73.0,63.8,57.9,62.5,59.9,56.5,96,88,66,30.11,30.01,5,0,7,0.00
2013-9-8,76.8,64.2,54.8,63.6,59.1,54.0,100,85,57,30.12,30.02,5,0,9,0.00
2013-9-9,77.8,63.7,56.1,63.7,59.1,55.3,100,86,59,30.07,29.97,3,0,7,0.00
2013-9-10,79.3,65.0,54.9,64.7,59.6,54.1,100,84,59,30.00,29.88,2,0,6,0.00
2013-9-11,92.8,72.2,55.7,65.7,60.0,54.9,100,71,31,29.94,29.86,2,0,6,0.00
2013-9-12,78.9,66.7,60.2,63.4,60.4,57.9,95,81,56,30.00,29.89,3,1,8,0.00
2013-9-13,65.9,62.4,57.7,61.3,59.6,56.3,97,91,84,29.97,29.87,2,0,7,0.00
2013-9-14,68.7,63.2,58.1,62.5,60.1,57.3,97,90,79,29.88,29.73,2,0,4,0.00
2013-9-15,65.3,60.9,57.8,62.1,59.6,57.0,100,95,87,29.82,29.71,3,0,8,0.12
2013-9-16,67.2,60.8,56.5,59.8,57.3,53.6,95,89,76,29.94,29.81,3,1,12,0.00
2013-9-17,61.5,57.4,53.2,54.8,53.0,51.6,95,85,70,29.94,29.88,3,0,7,0.00
2013-9-18,67.7,57.7,50.8,55.0,51.8,49.3,100,82,57,30.08,29.94,5,0,9,0.00
2013-9-19,79.1,59.9,44.6,54.8,49.8,43.5,100,73,42,30.05,29.76,3,0,7,0.00
2013-9-20,73.5,60.3,49.2,56.4,52.5,47.5,95,78,48,29.76,29.59,5,1,13,0.02
2013-9-21,69.9,60.8,56.2,56.8,54.6,52.4,95,81,56,29.72,29.65,6,1,10,0.01
2013-9-22,60.7,57.2,53.7,55.4,52.6,48.2,95,85,65,29.74,29.58,5,2,20,0.30
2013-9-23,60.3,55.4,48.9,54.1,51.6,47.8,96,87,75,29.97,29.74,5,1,15,0.09
2013-9-24,62.0,53.6,47.6,51.7,48.8,46.1,100,85,58,29.97,29.84,5,1,10,0.00
2013-9-25,60.5,50.8,44.3,51.3,48.1,43.2,97,91,65,30.04,29.87,2,0,5,0.00
2013-9-26,62.1,50.2,42.4,51.2,46.7,41.7,100,89,61,30.14,30.04,3,0,8,0.00
2013-9-27,56.3,53.4,47.4,52.8,49.9,46.0,96,88,80,30.14,29.86,5,1,12,0.00
2013-9-28,59.5,54.7,50.6,57.8,53.1,48.7,100,94,88,29.86,29.35,7,2,20,1.32
2013-9-29,54.8,52.2,50.7,52.2,49.2,47.6,96,89,80,29.58,29.17,7,3,21,0.63
2013-9-30,56.5,51.3,47.7,51.8,47.7,44.7,95,88,78,29.93,29.42,6,2,16,0.15
2013-10-1,57.3,50.9,46.3,49.9,46.0,43.5,96,84,61,30.12,29.92,6,2,15,0.06
2013-10-2,53.9,49.8,46.9,48.6,47.0,45.5,97,90,77,30.18,30.06,5,0,12,0.22
2013-10-3,57.2,49.9,42.8,48.9,46.8,42.0,100,90,70,30.47,30.18,2,0,6,0.01
2013-10-4,62.9,48.4,37.1,49.7,43.7,37.1,100,86,52,30.49,30.36,2,0,7,0.00
2013-10-5,70.3,52.6,40.9,52.1,46.3,40.1,100,82,49,30.37,30.14,2,0,6,0.00
2013-10-6,73.3,55.7,40.6,54.0,46.9,39.8,100,76,37,30.14,29.89,5,0,12,0.00
2013-10-7,59.7,54.2,51.1,51.2,49.1,45.3,95,84,60,30.01,29.90,7,2,15,0.10
2013-10-8,53.2,49.6,40.9,50.0,46.1,40.0,97,88,73,30.08,29.97,2,0,8,0.15
2013-10-9,59.1,46.2,38.2,47.7,42.9,37.4,100,89,64,30.15,29.96,3,0,7,0.01
2013-10-10,58.5,50.5,43.5,50.1,46.7,42.4,97,87,67,30.08,29.95,3,0,7,0.01
2013-10-11,53.7,49.8,45.7,50.7,48.3,44.9,100,95,86,30.15,30.07,2,0,5,0.04
2013-10-12,55.9,49.1,41.5,51.0,47.2,40.7,100,93,75,30.22,30.08,1,0,6,0.17
2013-10-13,55.7,45.5,38.3,48.5,43.9,38.3,100,95,75,30.38,30.23,2,0,5,0.01
2013-10-14,60.1,44.4,34.2,49.3,41.9,34.2,100,92,64,30.45,30.38,1,0,4,0.00
2013-10-15,61.1,46.6,37.2,51.5,44.3,37.1,100,92,70,30.41,30.19,3,0,6,0.01
2013-10-16,52.8,48.1,41.9,48.8,46.5,41.1,100,94,86,30.22,30.16,1,0,5,0.00
2013-10-17,55.6,47.7,41.8,50.0,45.9,41.0,100,93,80,30.29,30.22,1,0,4,0.00
2013-10-18,60.2,46.2,39.4,52.5,44.6,39.4,100,95,74,30.26,30.16,2,0,6,0.00
2013-10-19,50.0,44.8,40.0,48.4,44.3,40.0,100,98,91,30.20,30.16,1,0,2,0.01
2013-10-20,48.5,45.9,44.1,46.9,45.3,44.1,100,97,92,30.22,30.16,1,0,4,0.01
2013-10-21,51.2,46.7,44.3,48.5,46.0,44.3,100,98,90,30.18,30.11,1,0,4,0.00
2013-10-22,56.9,47.6,44.1,52.2,46.7,44.1,100,97,83,30.13,30.04,1,0,4,0.01
2013-10-23,59.8,46.6,41.1,52.8,45.5,41.1,100,96,76,30.07,29.99,2,0,6,0.00
2013-10-24,50.4,46.3,42.8,48.7,45.9,42.8,100,98,93,30.13,30.03,2,0,4,0.01
2013-10-25,51.0,47.2,42.4,48.6,46.4,42.0,100,97,90,30.33,30.13,1,0,4,0.01
2013-10-26,51.5,47.9,43.3,47.3,45.9,43.3,100,93,82,30.34,30.19,2,0,8,0.00
2013-10-27,56.3,47.4,40.7,49.6,45.7,40.3,100,94,76,30.21,29.91,3,0,10,0.11
2013-10-28,55.9,45.2,37.4,46.4,38.9,34.2,100,81,48,29.96,29.89,3,0,14,0.00
2013-10-29,56.0,41.6,31.4,41.1,36.7,30.7,100,84,54,30.05,29.96,3,0,6,0.00
2013-10-30,55.2,45.3,34.0,46.7,40.6,33.0,100,85,67,30.14,30.04,5,1,13,0.02
2013-10-31,53.9,50.3,48.3,50.6,47.3,43.2,97,89,78,30.27,30.11,3,0,12,0.00
2013-11-1,59.9,53.1,48.6,52.5,50.1,47.8,100,90,74,30.28,29.84,2,0,5,0.00
2013-11-2,53.6,48.9,44.0,50.5,45.4,39.8,100,88,73,29.89,29.49,9,2,22,0.50
2013-11-3,51.0,43.0,36.6,43.0,39.4,35.6,97,88,67,30.12,29.89,3,0,10,0.00
2013-11-4,48.4,40.5,31.8,40.2,36.2,31.0,100,86,58,30.21,30.07,2,0,5,0.01
2013-11-5,53.6,45.8,40.8,48.9,44.0,39.5,100,94,76,30.26,30.03,3,0,13,0.00
2013-11-6,50.2,45.6,41.0,46.7,44.3,41.0,100,95,84,30.33,30.03,2,0,5,0.00
2013-11-7,49.4,47.7,46.8,48.5,46.5,44.8,100,96,86,30.03,29.72,7,2,20,0.62
2013-11-8,52.9,47.3,41.3,45.8,43.7,40.4,100,88,74,30.17,29.97,3,1,13,0.00
2013-11-9,50.5,43.9,35.2,45.4,41.8,34.9,100,93,74,30.17,30.08,1,0,3,0.09
2013-11-10,48.6,45.3,42.4,46.0,44.2,41.6,100,96,89,30.16,30.10,1,0,5,0.02
2013-11-11,57.9,46.0,37.9,49.6,43.8,37.9,100,93,71,30.17,30.00,2,0,5,0.00
2013-11-12,56.9,50.8,43.8,53.2,48.7,42.5,100,93,85,30.36,30.03,3,0,8,0.14
2013-11-13,54.9,51.5,47.0,49.5,48.1,45.1,94,88,79,30.44,30.31,2,0,9,0.00
2013-11-14,48.8,45.6,41.4,47.5,44.8,41.3,100,97,93,30.31,30.06,2,0,4,0.14
2013-11-15,46.6,43.6,40.4,45.5,42.3,40.4,100,95,89,30.07,29.33,6,1,21,0.33
2013-11-16,47.2,43.0,38.8,42.7,39.3,37.3,100,87,73,29.78,29.36,6,1,13,0.04
2013-11-17,51.0,46.6,42.5,46.4,43.1,38.3,92,88,82,29.92,29.77,6,2,16,0.00
2013-11-18,50.5,48.7,46.5,49.4,47.3,44.0,97,95,89,29.91,29.56,5,1,13,0.63
2013-11-19,52.4,42.8,35.3,50.9,38.4,25.3,97,85,58,30.08,29.55,5,0,15,0.19
2013-11-20,41.3,32.9,25.8,31.5,27.2,24.1,97,81,56,30.53,30.08,2,0,7,0.00
2013-11-21,41.5,30.2,23.8,30.3,25.3,22.8,97,84,49,30.69,30.53,2,0,5,0.00
2013-11-22,44.8,32.4,24.5,30.4,27.0,23.3,96,82,50,30.67,30.47,1,0,4,0.01
2013-11-23,49.9,35.6,26.5,35.7,30.2,25.5,97,83,51,30.46,30.21,1,0,3,0.00
2013-11-24,49.5,37.0,28.2,42.0,34.3,27.5,100,91,70,30.27,30.18,2,0,5,0.00
2013-11-25,51.4,38.3,29.4,42.6,35.5,28.7,100,90,69,30.34,30.27,1,0,3,0.01
2013-11-26,51.3,39.9,30.9,42.8,37.2,30.3,100,91,62,30.28,30.11,1,0,3,0.01
2013-11-27,54.8,44.2,34.7,43.7,38.8,33.9,97,82,64,30.11,29.97,2,0,4,0.00
2013-11-28,47.5,37.5,31.5,44.1,36.7,30.9,100,97,87,30.19,30.03,1,0,4,0.00
2013-11-29,46.2,42.5,36.0,44.9,41.5,36.0,100,96,89,30.33,30.19,2,0,6,0.00
2013-11-30,50.2,47.6,44.6,47.3,44.3,42.6,97,89,78,30.34,30.10,5,1,15,0.17
2013-12-1,52.8,49.8,40.4,50.6,47.1,38.4,97,91,84,30.09,29.74,6,2,23,0.05
2013-12-2,44.0,37.9,34.0,38.2,34.5,31.6,97,88,64,30.06,29.82,3,0,10,0.05
2013-12-3,37.2,31.7,25.0,35.3,26.2,22.9,97,81,60,30.33,30.06,3,0,9,0.00
2013-12-4,35.3,26.3,20.6,27.8,23.0,19.6,100,88,63,30.38,30.31,2,0,4,0.00
2013-12-5,31.0,24.6,19.1,23.7,20.0,14.5,96,83,59,30.34,30.22,2,0,6,0.00
2013-12-6,30.7,23.8,16.6,15.1,12.0,8.4,78,61,43,30.25,30.17,2,0,10,0.00
2013-12-7,27.0,18.2,11.6,10.1,7.7,2.9,82,65,36,30.46,30.25,1,0,5,0.00
2013-12-8,30.0,21.4,12.1,17.4,14.1,8.2,88,74,51,30.60,30.45,1,0,3,0.00
2013-12-9,30.9,25.8,16.6,24.1,19.3,13.1,88,76,63,30.61,30.51,1,0,3,0.00
2013-12-10,37.6,33.3,30.0,32.6,29.2,24.0,89,85,78,30.52,30.43,0,0,3,0.00
2013-12-11,38.9,31.5,25.7,34.1,29.5,24.7,97,92,79,30.44,30.18,1,0,3,0.00
2013-12-12,43.0,35.2,27.6,40.4,33.4,26.9,100,94,70,30.18,30.07,5,0,12,0.22
2013-12-13,46.0,43.7,40.5,46.0,43.7,40.5,100,100,100,30.43,30.15,2,0,7,0.06
2013-12-14,47.6,44.2,40.6,44.4,42.9,40.6,100,95,85,30.45,30.33,3,0,9,0.00
2013-12-15,49.3,47.2,45.1,47.7,45.8,43.0,100,95,85,30.46,30.33,3,1,12,0.07
2013-12-16,45.1,41.7,38.3,45.1,41.5,38.3,100,99,95,30.51,30.28,1,0,3,0.00
2013-12-17,43.9,39.8,37.1,42.2,39.3,37.1,100,98,92,30.28,30.12,2,0,7,0.01
2013-12-18,42.5,39.1,28.9,41.7,37.1,28.1,100,93,76,30.17,30.04,5,0,7,0.11
2013-12-19,36.6,29.9,25.0,30.7,27.7,24.3,100,92,66,30.37,30.16,2,0,4,0.00
2013-12-20,39.1,33.8,29.4,39.1,33.1,28.1,100,97,92,30.22,29.73,5,0,10,0.50
2013-12-21,43.9,40.1,37.2,43.9,40.1,37.2,100,100,100,30.17,29.85,2,0,3,0.27
2013-12-22,48.0,45.8,43.0,48.0,45.8,43.0,100,100,97,30.30,30.17,5,1,12,0.36
2013-12-23,52.3,46.2,38.7,48.1,45.1,38.7,100,96,84,30.53,30.13,6,1,18,0.13
2013-12-24,44.8,37.3,31.3,42.2,36.7,31.3,100,98,83,30.64,30.52,1,0,3,0.01
2013-12-25,36.7,31.8,29.2,36.7,31.8,29.2,100,100,100,30.55,30.41,1,0,2,0.01
2013-12-26,42.0,34.3,30.0,39.6,34.0,30.0,100,99,90,30.42,30.22,2,0,4,0.00
2013-12-27,44.1,37.3,30.4,43.5,37.1,30.4,100,99,88,30.39,30.14,3,0,13,0.07
2013-12-28,46.3,40.7,33.7,44.5,40.2,33.7,100,98,88,30.54,30.39,1,0,3,0.00
2013-12-29,41.5,38.1,36.0,40.2,37.9,36.0,100,99,94,30.50,30.33,2,0,4,0.02
2013-12-30,41.7,38.7,34.9,41.7,38.6,34.9,100,100,97,30.34,30.15,2,0,7,0.02
2013-12-31,44.5,41.7,36.2,44.5,41.1,36.2,100,98,94,30.39,30.20,2,0,6,0.01
2014-1-1,41.9,38.0,31.6,41.9,38.0,31.6,100,100,97,30.43,30.25,1,0,3,0.01
2014-1-2,48.2,43.5,39.5,44.8,42.1,39.5,100,95,81,30.26,29.91,3,0,16,0.41